Weather reports worldwide

Advertisment
Newcastle, United Kingdom (3245): temperature & dewpoint: 11.10.2018 05:00:00 - 17.10.2018 05:00:00 (BST)Newcastle, United Kingdom (3245): wind speed: 11.10.2018 05:00:00 - 17.10.2018 05:00:00 (BST)Newcastle, United Kingdom (3245): wind direction: 11.10.2018 05:00:00 - 17.10.2018 05:00:00 (BST)Newcastle, United Kingdom (3245): visibility: 11.10.2018 05:00:00 - 17.10.2018 05:00:00 (BST)
Date & Time tt [°C] td [°C] ff [km/h] ff [kn] dd vv [km]
17.10.2018 05:00:00 9,0 7,0 5 3 SSW 10
17.10.2018 04:00:00 - - - - - -
17.10.2018 03:00:00 10,0 9,0 4 2 SSW 10
17.10.2018 02:00:00 - - - - - -
17.10.2018 01:00:00 13,0 10,0 9 5 SSW 10
17.10.2018 00:00:00 13,0 10,0 15 8 SSW 10
16.10.2018 23:00:00 12,0 9,0 13 7 SSW 10
16.10.2018 22:00:00 13,0 9,0 13 7 SSW 10
16.10.2018 21:00:00 13,0 9,0 16 9 SSW 10
16.10.2018 20:00:00 13,0 9,0 21 11 SW 10
16.10.2018 19:00:00 14,0 9,0 13 7 SSW 10
16.10.2018 18:00:00 15,0 9,0 13 7 SSW 10
16.10.2018 17:00:00 15,0 8,0 26 14 SSW 10
16.10.2018 16:00:00 16,0 9,0 9 5 - 10
16.10.2018 15:00:00 17,0 9,0 22 12 SW 10
16.10.2018 14:00:00 15,0 11,0 21 11 SSW 10
16.10.2018 13:00:00 15,0 11,0 13 7 S 10
16.10.2018 12:00:00 13,0 10,0 9 5 S 10
16.10.2018 11:00:00 12,0 10,0 15 8 S 10
16.10.2018 10:00:00 11,0 10,0 16 9 S 10
16.10.2018 09:00:00 10,0 9,0 11 6 S 10
16.10.2018 08:00:00 10,0 9,0 5 3 - 10
16.10.2018 07:00:00 9,0 9,0 8 4 SSE 5
16.10.2018 06:00:00 9,0 9,0 8 4 SSE 8
16.10.2018 05:00:00 8,0 8,0 4 2 - 6
16.10.2018 04:00:00 8,0 8,0 4 2 - 6
16.10.2018 03:00:00 6,0 6,0 0 0 N 8
16.10.2018 02:00:00 5,0 5,0 0 0 N 6
16.10.2018 01:00:00 3,0 3,0 0 0 N 1,2
16.10.2018 00:00:00 3,0 3,0 0 0 N 0,2
15.10.2018 23:00:00 3,0 3,0 0 0 N 0,5
15.10.2018 22:00:00 4,0 3,0 2 1 W 0,8
15.10.2018 21:00:00 3,0 3,0 2 1 NW 10
15.10.2018 20:00:00 6,0 5,0 0 0 N 10
15.10.2018 19:00:00 7,0 7,0 2 1 ESE 10
15.10.2018 18:00:00 10,0 7,0 8 4 E 10
15.10.2018 17:00:00 10,0 7,0 8 4 E 10
15.10.2018 16:00:00 12,0 7,0 5 3 - 10
15.10.2018 15:00:00 12,0 7,0 5 3 - 10
15.10.2018 14:00:00 11,0 7,0 4 2 - 10
15.10.2018 13:00:00 11,0 7,0 4 2 - 10
15.10.2018 12:00:00 8,0 5,0 4 2 - 10
15.10.2018 11:00:00 - - - - - -
15.10.2018 10:00:00 5,0 4,0 0 0 N 10
15.10.2018 09:00:00 4,0 4,0 5 3 S 10
15.10.2018 08:00:00 4,0 4,0 4 2 - 10
15.10.2018 07:00:00 3,0 3,0 4 2 WSW 10
15.10.2018 06:00:00 3,0 3,0 4 2 SW 10
15.10.2018 05:00:00 - - - - - -
15.10.2018 04:00:00 - - - - - -
15.10.2018 03:00:00 2,0 2,0 4 2 SW 10
15.10.2018 02:00:00 2,0 2,0 2 1 WSW 10
15.10.2018 01:00:00 2,0 2,0 0 0 N 10
15.10.2018 00:00:00 2,0 2,0 2 1 SSW 10
14.10.2018 23:00:00 3,0 3,0 0 0 N 10
14.10.2018 22:00:00 4,0 4,0 2 1 W 10
14.10.2018 21:00:00 4,0 3,0 5 3 NW 10
14.10.2018 20:00:00 5,0 4,0 5 3 NW 10
14.10.2018 19:00:00 5,0 4,0 0 0 N 10
14.10.2018 18:00:00 9,0 5,0 0 0 N 10
14.10.2018 17:00:00 11,0 5,0 5 3 NW 10
14.10.2018 16:00:00 10,0 6,0 4 2 - 10
14.10.2018 15:00:00 10,0 7,0 5 3 - 10
14.10.2018 14:00:00 10,0 6,0 0 0 N 10
14.10.2018 13:00:00 10,0 7,0 5 3 - 10
14.10.2018 12:00:00 9,0 7,0 9 5 W 10
14.10.2018 11:00:00 9,0 7,0 9 5 W 10
14.10.2018 10:00:00 9,0 7,0 9 5 W 10
14.10.2018 09:00:00 9,0 7,0 9 5 W 10
14.10.2018 08:00:00 10,0 7,0 16 9 W 10
14.10.2018 07:00:00 10,0 8,0 15 8 W 10
14.10.2018 06:00:00 10,0 8,0 11 6 WNW 10
14.10.2018 05:00:00 11,0 8,0 21 11 W 10
14.10.2018 04:00:00 - - - - - -
14.10.2018 03:00:00 - - - - - -
14.10.2018 02:00:00 15,0 10,0 22 12 SW 10
14.10.2018 01:00:00 16,0 10,0 21 11 SSW 10
14.10.2018 00:00:00 17,0 12,0 22 12 SW 10
13.10.2018 23:00:00 18,0 14,0 15 8 SW 10
13.10.2018 22:00:00 18,0 14,0 24 13 SSW 10
13.10.2018 21:00:00 20,0 14,0 28 15 SSW 10
13.10.2018 20:00:00 20,0 15,0 29 16 S 10
13.10.2018 19:00:00 20,0 14,0 24 13 S 10
13.10.2018 18:00:00 20,0 14,0 21 11 S 10
13.10.2018 17:00:00 20,0 14,0 28 15 S 10
13.10.2018 16:00:00 21,0 15,0 28 15 SSW 10
13.10.2018 15:00:00 21,0 16,0 29 16 S 10
13.10.2018 14:00:00 - - - - - -
13.10.2018 13:00:00 19,0 17,0 24 13 S 6
13.10.2018 12:00:00 18,0 17,0 26 14 S 9
13.10.2018 11:00:00 14,0 14,0 9 5 ESE 4,0
13.10.2018 10:00:00 14,0 14,0 8 4 ESE 6
13.10.2018 09:00:00 - - - - - -
13.10.2018 08:00:00 14,0 13,0 5 3 ESE 6
13.10.2018 07:00:00 14,0 13,0 4 2 E 10
13.10.2018 06:00:00 13,0 13,0 4 2 ESE 10
13.10.2018 05:00:00 13,0 12,0 5 3 E 10
13.10.2018 04:00:00 14,0 12,0 2 1 - 10
13.10.2018 03:00:00 14,0 12,0 9 5 SSW 10
13.10.2018 02:00:00 14,0 12,0 13 7 SSW 10
13.10.2018 01:00:00 14,0 12,0 15 8 SSW 10
13.10.2018 00:00:00 15,0 12,0 18 10 SW 10
12.10.2018 23:00:00 15,0 13,0 16 9 SW 8
12.10.2018 22:00:00 16,0 15,0 18 10 SW 8
12.10.2018 21:00:00 17,0 16,0 28 15 S 6
12.10.2018 20:00:00 18,0 15,0 34 18 S 10
12.10.2018 19:00:00 19,0 15,0 35 19 S 10
12.10.2018 18:00:00 18,0 14,0 37 20 S 10
12.10.2018 17:00:00 18,0 14,0 37 20 S 10
12.10.2018 16:00:00 17,0 14,0 28 15 S 10
12.10.2018 15:00:00 16,0 14,0 24 13 SSE 10
12.10.2018 14:00:00 16,0 13,0 26 14 S 10
12.10.2018 13:00:00 15,0 13,0 22 12 S 10
12.10.2018 12:00:00 16,0 12,0 28 15 S 10
12.10.2018 11:00:00 15,0 12,0 26 14 S 10
12.10.2018 10:00:00 13,0 11,0 24 13 S 10
12.10.2018 09:00:00 13,0 11,0 28 15 S 10
12.10.2018 08:00:00 12,0 10,0 28 15 S 10
12.10.2018 07:00:00 12,0 10,0 24 13 SSE 10
12.10.2018 06:00:00 11,0 9,0 24 13 S 10
12.10.2018 05:00:00 10,0 8,0 15 8 SSE 10
12.10.2018 04:00:00 10,0 8,0 13 7 SSE 10
12.10.2018 03:00:00 9,0 8,0 5 3 - 10
12.10.2018 02:00:00 9,0 9,0 5 3 - 10
12.10.2018 01:00:00 10,0 9,0 5 3 - 10
12.10.2018 00:00:00 10,0 9,0 8 4 SSW 10
11.10.2018 23:00:00 10,0 9,0 4 2 WSW 10
11.10.2018 22:00:00 12,0 11,0 8 4 WSW 10
11.10.2018 21:00:00 14,0 10,0 13 7 WSW 10
11.10.2018 20:00:00 18,0 11,0 24 13 S 10
11.10.2018 19:00:00 15,0 12,0 13 7 E 10
11.10.2018 18:00:00 16,0 12,0 8 4 E 10
11.10.2018 17:00:00 18,0 11,0 8 4 SE 10
11.10.2018 16:00:00 18,0 11,0 13 7 SSE 10
11.10.2018 15:00:00 17,0 12,0 21 11 S 10
11.10.2018 14:00:00 - - - - - -
11.10.2018 13:00:00 16,0 13,0 18 10 S 9
11.10.2018 12:00:00 15,0 13,0 11 6 S 6
11.10.2018 11:00:00 14,0 13,0 11 6 SSE 3,5
11.10.2018 10:00:00 14,0 12,0 9 5 SE 3,0
11.10.2018 09:00:00 13,0 12,0 11 6 SE 2,9
11.10.2018 08:00:00 12,0 12,0 4 2 - 1,6
11.10.2018 07:00:00 12,0 11,0 5 3 - 1,0
11.10.2018 06:00:00 12,0 12,0 8 4 ESE 0,9
11.10.2018 05:00:00 12,0 12,0 5 3 - 0,9

tt = temperature
td = dewpoint
ff = wind speed
dd = wind direction
vv = visibility

Next stations